createdAt,value
2019-02-27T00:00:53.190Z,47.00
2019-02-27T00:01:53.164Z,42.00
2019-02-27T00:02:53.761Z,44.60
2019-02-27T00:03:53.121Z,47.30
2019-02-27T00:04:53.098Z,41.40
2019-02-27T00:05:53.072Z,40.00
2019-02-27T00:06:53.053Z,44.80
2019-02-27T00:07:54.844Z,41.30
2019-02-27T00:08:52.999Z,43.70
2019-02-27T00:09:52.980Z,43.40
2019-02-27T00:10:52.951Z,45.90
2019-02-27T00:11:52.936Z,40.10
2019-02-27T00:12:52.917Z,43.20
2019-02-27T00:13:52.882Z,42.00
2019-02-27T00:14:52.857Z,41.50
2019-02-27T00:15:52.832Z,39.40
2019-02-27T00:16:52.809Z,39.70
2019-02-27T00:17:52.790Z,43.20
2019-02-27T00:18:53.739Z,44.00
2019-02-27T00:19:52.738Z,42.90
2019-02-27T00:20:52.721Z,43.70
2019-02-27T00:21:52.690Z,40.00
2019-02-27T00:22:52.668Z,41.40
2019-02-27T00:23:56.739Z,41.70
2019-02-27T00:24:52.629Z,42.80
2019-02-27T00:25:52.596Z,37.40
2019-02-27T00:26:52.571Z,44.20
2019-02-27T00:27:52.548Z,41.70
2019-02-27T00:28:55.964Z,41.20
2019-02-27T00:29:52.541Z,37.20
2019-02-27T00:30:52.479Z,41.30
2019-02-27T00:31:52.453Z,39.40
2019-02-27T00:32:52.427Z,41.30
2019-02-27T00:33:52.402Z,43.90
2019-02-27T00:34:52.389Z,39.90
2019-02-27T00:35:52.362Z,39.20
2019-02-27T00:36:52.341Z,40.20
2019-02-27T00:37:52.707Z,39.00
2019-02-27T00:38:52.284Z,38.40
2019-02-27T00:39:52.262Z,40.10
2019-02-27T00:40:52.236Z,38.90
2019-02-27T00:41:52.212Z,38.80
2019-02-27T00:42:54.456Z,45.00
2019-02-27T00:43:52.163Z,43.30
2019-02-27T00:44:52.139Z,42.40
2019-02-27T00:45:52.120Z,42.10
2019-02-27T00:46:52.091Z,41.40
2019-02-27T00:47:53.311Z,41.80
2019-02-27T00:48:52.042Z,42.20
2019-02-27T00:49:52.026Z,42.70
2019-02-27T00:50:52.001Z,40.90
2019-02-27T00:51:51.969Z,41.00
2019-02-27T00:52:51.947Z,43.70
2019-02-27T00:53:51.929Z,39.30
2019-02-27T00:54:51.897Z,41.80
2019-02-27T00:55:51.875Z,46.80
2019-02-27T00:56:51.850Z,43.10
2019-02-27T00:57:54.348Z,44.70
2019-02-27T00:58:51.799Z,40.10
2019-02-27T00:59:51.778Z,40.80
2019-02-27T01:00:51.753Z,39.20
2019-02-27T01:01:51.731Z,40.20
2019-02-27T01:02:53.472Z,41.40
2019-02-27T01:03:51.678Z,40.10
2019-02-27T01:04:51.655Z,42.00
2019-02-27T01:05:51.630Z,41.50
2019-02-27T01:06:51.614Z,38.60
2019-02-27T01:07:53.862Z,40.40
2019-02-27T01:08:51.558Z,39.70
2019-02-27T01:09:51.533Z,43.50
2019-02-27T01:10:51.520Z,39.70
2019-02-27T01:11:51.949Z,37.00
2019-02-27T01:12:51.468Z,41.40
2019-02-27T01:13:51.444Z,36.90
2019-02-27T01:14:51.419Z,42.20
2019-02-27T01:15:51.388Z,41.20
2019-02-27T01:16:51.363Z,42.00
2019-02-27T01:17:51.344Z,43.00
2019-02-27T01:18:51.315Z,37.10
2019-02-27T01:19:51.291Z,39.30
2019-02-27T01:20:51.268Z,42.50
2019-02-27T01:21:51.261Z,40.70
2019-02-27T01:22:51.216Z,38.10
2019-02-27T01:23:51.194Z,38.90
2019-02-27T01:24:51.181Z,38.40
2019-02-27T01:25:51.145Z,41.50
2019-02-27T01:26:51.120Z,39.10
2019-02-27T01:27:51.105Z,40.40
2019-02-27T01:28:51.072Z,38.80
2019-02-27T01:29:51.752Z,42.50
2019-02-27T01:30:51.034Z,36.90
2019-02-27T01:31:51.002Z,38.50
2019-02-27T01:32:50.978Z,36.90
2019-02-27T01:33:50.963Z,39.60
2019-02-27T01:34:50.925Z,37.70
2019-02-27T01:35:52.127Z,36.90
2019-02-27T01:36:50.875Z,39.20
2019-02-27T01:37:50.849Z,38.00
2019-02-27T01:38:50.826Z,36.40
2019-02-27T01:39:50.804Z,40.80
2019-02-27T01:40:51.537Z,39.00
2019-02-27T01:41:50.755Z,35.50
2019-02-27T01:42:50.737Z,36.00
2019-02-27T01:43:50.718Z,38.10
2019-02-27T01:44:50.681Z,36.50
2019-02-27T01:45:51.890Z,39.10
2019-02-27T01:46:50.630Z,40.50
2019-02-27T01:47:50.606Z,36.90
2019-02-27T01:48:50.588Z,38.40
2019-02-27T01:49:50.559Z,38.80
2019-02-27T01:50:54.979Z,37.30
2019-02-27T01:51:50.507Z,34.40
2019-02-27T01:52:50.483Z,37.50
2019-02-27T01:53:50.459Z,37.70
2019-02-27T01:54:50.434Z,37.00
2019-02-27T01:55:50.409Z,38.00
2019-02-27T01:56:50.393Z,37.70
2019-02-27T01:57:50.358Z,37.10
2019-02-27T01:58:50.336Z,34.90
2019-02-27T01:59:51.021Z,37.00
2019-02-27T02:00:50.288Z,36.90
2019-02-27T02:01:50.261Z,39.00
2019-02-27T02:02:50.237Z,38.50
2019-02-27T02:03:50.211Z,35.80
2019-02-27T02:04:53.111Z,35.20
2019-02-27T02:05:50.164Z,37.20
2019-02-27T02:06:50.148Z,37.20
2019-02-27T02:07:50.115Z,37.80
2019-02-27T02:08:50.090Z,37.60
2019-02-27T02:09:52.149Z,33.90
2019-02-27T02:10:50.040Z,36.90
2019-02-27T02:11:50.015Z,35.60
2019-02-27T02:12:49.992Z,35.80
2019-02-27T02:13:49.967Z,37.50
2019-02-27T02:14:54.140Z,36.60
2019-02-27T02:15:49.916Z,37.10
2019-02-27T02:16:49.893Z,36.70
2019-02-27T02:17:49.865Z,36.40
2019-02-27T02:18:49.844Z,36.60
2019-02-27T02:19:54.015Z,38.40
2019-02-27T02:20:49.794Z,35.90
2019-02-27T02:21:49.768Z,40.40
2019-02-27T02:22:49.742Z,34.20
2019-02-27T02:23:49.716Z,36.00
2019-02-27T02:24:51.900Z,36.90
2019-02-27T02:25:49.667Z,39.60
2019-02-27T02:26:49.648Z,34.20
2019-02-27T02:27:49.619Z,39.30
2019-02-27T02:28:49.596Z,35.70
2019-02-27T02:29:52.968Z,38.10
2019-02-27T02:30:49.545Z,37.30
2019-02-27T02:31:49.524Z,41.20
2019-02-27T02:32:52.365Z,35.50
2019-02-27T02:33:49.470Z,36.40
2019-02-27T02:34:49.445Z,40.00
2019-02-27T02:35:50.782Z,35.50
2019-02-27T02:36:49.395Z,35.70
2019-02-27T02:37:49.371Z,34.50
2019-02-27T02:38:49.345Z,37.80
2019-02-27T02:39:54.260Z,37.40
2019-02-27T02:40:49.299Z,40.70
2019-02-27T02:41:49.274Z,36.20
2019-02-27T02:42:49.255Z,35.90
2019-02-27T02:43:49.224Z,36.50
2019-02-27T02:44:49.206Z,38.10
2019-02-27T02:45:49.171Z,35.20
2019-02-27T02:46:49.152Z,36.20
2019-02-27T02:47:49.122Z,39.10
2019-02-27T02:48:49.100Z,37.20
2019-02-27T02:49:49.072Z,40.70
2019-02-27T02:50:54.013Z,38.60
2019-02-27T02:51:49.024Z,37.60
2019-02-27T02:52:49.002Z,37.90
2019-02-27T02:53:49.165Z,37.60
2019-02-27T02:54:48.960Z,38.60
2019-02-27T02:55:49.370Z,36.30
2019-02-27T02:56:48.899Z,36.90
2019-02-27T02:57:48.874Z,37.50
2019-02-27T02:58:48.979Z,38.30
2019-02-27T02:59:48.824Z,36.50
2019-02-27T03:00:48.801Z,38.70
2019-02-27T03:01:49.289Z,36.10
2019-02-27T03:02:48.749Z,39.20
2019-02-27T03:03:48.743Z,34.50
2019-02-27T03:04:49.377Z,38.00
2019-02-27T03:05:48.675Z,36.90
2019-02-27T03:06:48.661Z,37.10
2019-02-27T03:07:48.636Z,37.00
2019-02-27T03:08:54.956Z,36.50
2019-02-27T03:09:48.579Z,39.40
2019-02-27T03:10:48.551Z,37.00
2019-02-27T03:11:54.221Z,38.10
2019-02-27T03:12:48.520Z,36.50
2019-02-27T03:13:48.474Z,38.30
2019-02-27T03:14:53.311Z,36.50
2019-02-27T03:15:48.425Z,37.50
2019-02-27T03:16:48.400Z,36.20
2019-02-27T03:17:53.697Z,38.10
2019-02-27T03:18:48.354Z,39.10
2019-02-27T03:19:48.325Z,34.70
2019-02-27T03:20:51.799Z,36.40
2019-02-27T03:21:48.274Z,36.70
2019-02-27T03:22:48.250Z,34.70
2019-02-27T03:23:52.059Z,36.90
2019-02-27T03:24:48.219Z,41.00
2019-02-27T03:25:48.172Z,37.00
2019-02-27T03:26:51.620Z,36.60
2019-02-27T03:27:48.126Z,38.00
2019-02-27T03:28:48.108Z,39.10
2019-02-27T03:29:52.199Z,38.00
2019-02-27T03:30:48.078Z,39.20
2019-02-27T03:31:57.672Z,37.10
2019-02-27T03:32:48.004Z,39.40
2019-02-27T03:33:47.982Z,35.10
2019-02-27T03:34:50.917Z,38.30
2019-02-27T03:35:47.922Z,37.60
2019-02-27T03:36:47.896Z,40.20
2019-02-27T03:37:49.344Z,34.00
2019-02-27T03:38:47.846Z,38.60
2019-02-27T03:39:47.823Z,41.90
2019-02-27T03:40:48.106Z,39.10
2019-02-27T03:41:47.772Z,36.20
2019-02-27T03:42:47.750Z,37.30
2019-02-27T03:43:47.720Z,36.80
2019-02-27T03:44:47.697Z,37.90
2019-02-27T03:45:47.668Z,37.50
2019-02-27T03:46:47.649Z,38.40
2019-02-27T03:47:51.661Z,38.40
2019-02-27T03:48:47.597Z,33.00
2019-02-27T03:49:47.574Z,40.20
2019-02-27T03:50:49.933Z,39.00
2019-02-27T03:51:47.524Z,39.10
2019-02-27T03:52:47.496Z,40.50
2019-02-27T03:53:47.466Z,38.90
2019-02-27T03:54:48.474Z,41.50
2019-02-27T03:55:47.416Z,36.00
2019-02-27T03:56:47.392Z,35.90
2019-02-27T03:57:47.364Z,37.30
2019-02-27T03:58:47.348Z,40.30
2019-02-27T03:59:47.316Z,36.30
2019-02-27T04:00:49.848Z,41.30
2019-02-27T04:01:47.274Z,37.60
2019-02-27T04:02:47.239Z,42.20
2019-02-27T04:03:47.213Z,37.30
2019-02-27T04:04:47.188Z,37.30
2019-02-27T04:05:47.172Z,42.20
2019-02-27T04:06:47.147Z,39.70
2019-02-27T04:07:47.111Z,38.20
2019-02-27T04:08:47.088Z,39.20
2019-02-27T04:09:47.063Z,36.40
2019-02-27T04:10:47.046Z,37.30
2019-02-27T04:11:47.010Z,38.40
2019-02-27T04:12:51.361Z,40.40
2019-02-27T04:13:46.959Z,35.70
2019-02-27T04:14:46.934Z,40.00
2019-02-27T04:15:46.918Z,36.00
2019-02-27T04:16:46.886Z,38.40
2019-02-27T04:17:51.882Z,37.70
2019-02-27T04:18:46.838Z,39.00
2019-02-27T04:19:46.816Z,40.00
2019-02-27T04:20:50.169Z,41.50
2019-02-27T04:21:46.756Z,35.90
2019-02-27T04:22:46.742Z,40.80
2019-02-27T04:23:48.979Z,42.20
2019-02-27T04:24:46.681Z,40.50
2019-02-27T04:25:46.658Z,38.30
2019-02-27T04:26:46.629Z,37.50
2019-02-27T04:27:46.605Z,35.80
2019-02-27T04:28:46.582Z,38.60
2019-02-27T04:29:46.564Z,38.40
2019-02-27T04:30:51.019Z,39.30
2019-02-27T04:31:46.503Z,39.90
2019-02-27T04:32:48.684Z,41.10
2019-02-27T04:33:46.455Z,37.30
2019-02-27T04:34:46.425Z,37.10
2019-02-27T04:35:46.400Z,41.40
2019-02-27T04:36:47.176Z,42.60
2019-02-27T04:37:46.349Z,38.60
2019-02-27T04:38:46.327Z,38.10
2019-02-27T04:39:46.302Z,40.60
2019-02-27T04:40:46.275Z,36.70
2019-02-27T04:41:46.249Z,36.50
2019-02-27T04:42:46.224Z,38.00
2019-02-27T04:43:46.198Z,37.60
2019-02-27T04:44:46.173Z,37.30
2019-02-27T04:45:46.888Z,43.30
2019-02-27T04:46:46.121Z,47.10
2019-02-27T04:47:46.095Z,37.80
2019-02-27T04:48:46.068Z,40.90
2019-02-27T04:49:46.041Z,38.70
2019-02-27T04:50:46.019Z,39.30
2019-02-27T04:51:48.127Z,42.10
2019-02-27T04:52:45.968Z,40.20
2019-02-27T04:53:45.941Z,37.90
2019-02-27T04:54:45.921Z,39.10
2019-02-27T04:55:47.992Z,38.70
2019-02-27T04:56:45.865Z,39.60
2019-02-27T04:57:45.838Z,40.50
2019-02-27T04:58:45.813Z,38.20
2019-02-27T04:59:45.788Z,43.20
2019-02-27T05:00:45.762Z,43.10
2019-02-27T05:01:45.734Z,39.80
2019-02-27T05:02:45.710Z,43.00
2019-02-27T05:03:45.685Z,41.50
2019-02-27T05:04:45.660Z,36.80
2019-02-27T05:05:45.633Z,44.10
2019-02-27T05:06:47.364Z,37.50
2019-02-27T05:07:45.584Z,42.60
2019-02-27T05:08:45.557Z,43.10
2019-02-27T05:09:45.531Z,43.90
2019-02-27T05:10:45.529Z,42.10
2019-02-27T05:11:48.334Z,41.80
2019-02-27T05:12:48.281Z,40.90
2019-02-27T05:13:45.429Z,42.30
2019-02-27T05:14:45.402Z,44.20
2019-02-27T05:15:45.377Z,42.60
2019-02-27T05:16:47.197Z,41.50
2019-02-27T05:17:45.326Z,50.70
2019-02-27T05:18:45.301Z,43.80
2019-02-27T05:19:45.275Z,42.10
2019-02-27T05:20:45.826Z,44.80
2019-02-27T05:21:45.224Z,41.10
2019-02-27T05:22:45.203Z,43.80
2019-02-27T05:23:45.230Z,41.50
2019-02-27T05:24:45.149Z,40.10
2019-02-27T05:25:45.121Z,39.60
2019-02-27T05:26:45.096Z,38.90
2019-02-27T05:27:45.070Z,46.40
2019-02-27T05:28:45.060Z,39.60
2019-02-27T05:29:45.021Z,41.50
2019-02-27T05:30:45.790Z,39.10
2019-02-27T05:31:44.975Z,42.80
2019-02-27T05:32:44.940Z,42.10
2019-02-27T05:33:44.920Z,45.90
2019-02-27T05:34:49.425Z,45.00
2019-02-27T05:35:44.864Z,48.40
2019-02-27T05:36:44.838Z,44.70
2019-02-27T05:37:44.823Z,38.80
2019-02-27T05:38:44.787Z,44.40
2019-02-27T05:39:44.761Z,43.20
2019-02-27T05:40:44.734Z,39.80
2019-02-27T05:41:44.708Z,39.80
2019-02-27T05:42:44.680Z,46.20
2019-02-27T05:43:47.546Z,46.10
2019-02-27T05:44:44.630Z,43.70
2019-02-27T05:45:44.606Z,47.20
2019-02-27T05:46:44.579Z,44.10
2019-02-27T05:47:45.802Z,39.00
2019-02-27T05:48:44.528Z,42.60
2019-02-27T05:49:44.556Z,44.20
2019-02-27T05:50:44.523Z,39.40
2019-02-27T05:51:44.450Z,44.40
2019-02-27T05:52:48.389Z,40.70
2019-02-27T05:53:44.404Z,39.30
2019-02-27T05:54:44.371Z,48.80
2019-02-27T05:55:44.346Z,41.70
2019-02-27T05:56:44.323Z,45.40
2019-02-27T05:57:44.294Z,41.10
2019-02-27T05:58:44.268Z,42.00
2019-02-27T05:59:44.242Z,45.30
2019-02-27T06:00:44.217Z,40.80
2019-02-27T06:01:44.191Z,38.50
2019-02-27T06:02:45.020Z,52.00
2019-02-27T06:03:44.140Z,41.50
2019-02-27T06:04:44.113Z,40.70
2019-02-27T06:05:49.559Z,41.70
2019-02-27T06:06:45.718Z,42.40
2019-02-27T06:07:44.044Z,42.30
2019-02-27T06:08:44.013Z,40.40
2019-02-27T06:09:44.578Z,42.20
2019-02-27T06:10:43.960Z,41.40
2019-02-27T06:11:43.944Z,39.30
2019-02-27T06:12:43.908Z,44.40
2019-02-27T06:13:45.000Z,43.10
2019-02-27T06:14:43.854Z,47.50
2019-02-27T06:15:43.834Z,44.60
2019-02-27T06:16:43.805Z,41.60
2019-02-27T06:17:48.296Z,48.80
2019-02-27T06:18:43.759Z,42.60
2019-02-27T06:19:43.739Z,44.10
2019-02-27T06:20:43.700Z,49.40
2019-02-27T06:21:43.673Z,46.20
2019-02-27T06:22:43.658Z,39.70
2019-02-27T06:23:43.622Z,44.50
2019-02-27T06:24:45.731Z,47.90
2019-02-27T06:25:43.571Z,48.70
2019-02-27T06:26:43.545Z,45.30
2019-02-27T06:27:43.532Z,52.90
2019-02-27T06:28:43.494Z,45.20
2019-02-27T06:29:43.469Z,51.50
2019-02-27T06:30:43.440Z,45.90
2019-02-27T06:31:43.414Z,45.60
2019-02-27T06:32:43.389Z,47.10
2019-02-27T06:33:45.780Z,49.40
2019-02-27T06:34:43.342Z,45.00
2019-02-27T06:35:43.320Z,47.40
2019-02-27T06:36:43.295Z,44.20
2019-02-27T06:37:43.259Z,51.00
2019-02-27T06:38:43.242Z,57.20
2019-02-27T06:39:43.213Z,44.90
2019-02-27T06:40:43.184Z,44.10
2019-02-27T06:41:43.155Z,47.50
2019-02-27T06:42:43.131Z,46.40
2019-02-27T06:43:43.105Z,41.90
2019-02-27T06:44:43.128Z,49.70
2019-02-27T06:45:45.370Z,49.20
2019-02-27T06:46:44.525Z,46.90
2019-02-27T06:47:43.004Z,53.40
2019-02-27T06:48:44.048Z,42.80
2019-02-27T06:49:42.961Z,39.40
2019-02-27T06:50:42.923Z,45.70
2019-02-27T06:51:42.906Z,44.10
2019-02-27T06:52:43.118Z,40.20
2019-02-27T06:53:42.856Z,39.40
2019-02-27T06:54:42.821Z,44.50
2019-02-27T06:55:42.795Z,44.30
2019-02-27T06:56:42.772Z,40.70
2019-02-27T06:57:42.743Z,42.40
2019-02-27T06:58:42.725Z,44.00
2019-02-27T06:59:42.690Z,41.20
2019-02-27T07:00:42.682Z,42.70
2019-02-27T07:01:45.026Z,44.30
2019-02-27T07:02:42.614Z,49.60
2019-02-27T07:03:42.594Z,40.50
2019-02-27T07:04:42.563Z,45.60
2019-02-27T07:05:42.538Z,48.10
2019-02-27T07:06:42.511Z,43.10
2019-02-27T07:07:42.502Z,40.60
2019-02-27T07:08:42.460Z,41.20
2019-02-27T07:09:45.522Z,48.20
2019-02-27T07:10:42.407Z,41.90
2019-02-27T07:11:44.998Z,44.30
2019-02-27T07:12:42.361Z,37.60
2019-02-27T07:13:42.330Z,46.80
2019-02-27T07:14:42.302Z,51.70
2019-02-27T07:15:47.909Z,45.10
2019-02-27T07:16:42.254Z,45.80
2019-02-27T07:17:42.246Z,41.50
2019-02-27T07:18:42.470Z,41.80
2019-02-27T07:19:42.183Z,41.30
2019-02-27T07:20:42.156Z,43.30
2019-02-27T07:21:42.125Z,41.70
2019-02-27T07:22:45.495Z,37.00
2019-02-27T07:23:42.072Z,45.70
2019-02-27T07:24:42.051Z,39.70
2019-02-27T07:25:42.786Z,44.40
2019-02-27T07:26:41.996Z,40.30
2019-02-27T07:27:41.989Z,38.90
2019-02-27T07:28:43.506Z,38.90
2019-02-27T07:29:42.918Z,52.20
2019-02-27T07:30:42.481Z,32.60
2019-02-27T07:31:41.868Z,38.90
2019-02-27T07:32:41.850Z,40.90
2019-02-27T07:33:41.817Z,36.90
2019-02-27T07:34:41.791Z,37.90
2019-02-27T07:35:41.770Z,34.70
2019-02-27T07:36:41.744Z,33.00
2019-02-27T07:37:41.718Z,48.40
2019-02-27T07:38:41.692Z,36.60
2019-02-27T07:39:41.667Z,35.80
2019-02-27T07:40:43.029Z,35.80
2019-02-27T07:41:41.616Z,32.80
2019-02-27T07:42:41.605Z,38.60
2019-02-27T07:43:41.571Z,40.00
2019-02-27T07:44:42.261Z,34.20
2019-02-27T07:45:42.765Z,48.70
2019-02-27T07:46:41.490Z,46.70
2019-02-27T07:47:41.465Z,43.00
2019-02-27T07:48:41.439Z,43.20
2019-02-27T07:49:41.419Z,36.50
2019-02-27T07:50:41.389Z,38.20
2019-02-27T07:51:41.369Z,37.00
2019-02-27T07:52:41.339Z,41.00
2019-02-27T07:53:41.317Z,47.30
2019-02-27T07:54:41.286Z,42.90
2019-02-27T07:55:41.263Z,34.10
2019-02-27T07:56:41.237Z,36.20
2019-02-27T07:57:41.213Z,36.40
2019-02-27T07:58:41.187Z,39.40
2019-02-27T07:59:41.163Z,38.40
2019-02-27T08:00:42.769Z,41.60
2019-02-27T08:01:43.978Z,42.70
2019-02-27T08:02:41.085Z,36.10
2019-02-27T08:03:44.907Z,37.30
2019-02-27T08:04:41.037Z,40.70
2019-02-27T08:05:41.019Z,43.40
2019-02-27T08:06:41.587Z,41.70
2019-02-27T08:07:40.960Z,41.30
2019-02-27T08:08:40.937Z,36.60
2019-02-27T08:09:40.918Z,39.40
2019-02-27T08:10:40.895Z,40.20
2019-02-27T08:11:40.861Z,36.00
2019-02-27T08:12:40.842Z,38.00
2019-02-27T08:13:40.810Z,40.30
2019-02-27T08:14:40.800Z,35.80
2019-02-27T08:15:40.761Z,43.20
2019-02-27T08:16:40.743Z,50.10
2019-02-27T08:17:40.711Z,30.60
2019-02-27T08:18:40.688Z,36.90
2019-02-27T08:19:42.832Z,39.70
2019-02-27T08:20:40.640Z,36.80
2019-02-27T08:21:40.620Z,32.70
2019-02-27T08:22:40.598Z,36.60
2019-02-27T08:23:40.569Z,33.50
2019-02-27T08:24:40.540Z,29.50
2019-02-27T08:25:40.521Z,35.60
2019-02-27T08:26:40.492Z,27.40
2019-02-27T08:27:43.073Z,30.10
2019-02-27T08:28:40.454Z,27.00
2019-02-27T08:29:40.428Z,30.60
2019-02-27T08:30:40.391Z,29.50
2019-02-27T08:31:40.367Z,30.70
2019-02-27T08:32:40.344Z,31.20
2019-02-27T08:33:40.373Z,31.20
2019-02-27T08:34:40.295Z,30.20
2019-02-27T08:35:40.274Z,24.10
2019-02-27T08:36:40.245Z,25.00
2019-02-27T08:37:40.222Z,23.70
2019-02-27T08:38:40.248Z,22.90
2019-02-27T08:39:40.170Z,23.50
2019-02-27T08:40:40.152Z,23.90
2019-02-27T08:41:40.124Z,22.60
2019-02-27T08:42:40.564Z,23.50
2019-02-27T08:43:41.218Z,24.50
2019-02-27T08:44:40.058Z,26.40
2019-02-27T08:45:40.040Z,24.70
2019-02-27T08:46:40.005Z,24.90
2019-02-27T08:47:40.869Z,24.90
2019-02-27T08:48:39.971Z,25.20
2019-02-27T08:49:39.926Z,25.30
2019-02-27T08:50:39.903Z,25.30
2019-02-27T08:51:42.006Z,28.10
2019-02-27T08:52:39.853Z,28.60
2019-02-27T08:53:39.829Z,28.80
2019-02-27T08:54:39.805Z,29.30
2019-02-27T08:55:39.832Z,26.20
2019-02-27T08:56:39.756Z,28.40
2019-02-27T08:57:39.732Z,27.30
2019-02-27T08:58:39.708Z,26.60
2019-02-27T08:59:40.690Z,28.60
2019-02-27T09:00:39.671Z,29.20
2019-02-27T09:01:39.636Z,26.80
2019-02-27T09:02:39.754Z,25.70
2019-02-27T09:03:39.587Z,29.20
2019-02-27T09:04:39.567Z,28.00
2019-02-27T09:05:39.540Z,29.90
2019-02-27T09:06:39.526Z,27.80
2019-02-27T09:07:39.494Z,33.20
2019-02-27T09:08:43.339Z,33.50
2019-02-27T09:09:39.449Z,35.70
2019-02-27T09:10:39.427Z,34.00
2019-02-27T09:11:40.753Z,35.30
2019-02-27T09:12:40.248Z,30.20
2019-02-27T09:13:39.363Z,34.60
2019-02-27T09:14:39.351Z,30.40
2019-02-27T09:15:41.574Z,32.50
2019-02-27T09:16:39.314Z,36.40
2019-02-27T09:17:39.282Z,35.40
2019-02-27T09:18:39.263Z,35.10
2019-02-27T09:19:39.262Z,32.40
2019-02-27T09:20:39.227Z,35.70
2019-02-27T09:21:39.205Z,37.60
2019-02-27T09:22:39.187Z,38.60
2019-02-27T09:23:39.175Z,36.30
2019-02-27T09:24:39.162Z,31.20
2019-02-27T09:25:39.140Z,30.90
2019-02-27T09:26:39.145Z,26.90
2019-02-27T09:27:39.103Z,28.60
2019-02-27T09:28:39.084Z,35.80
2019-02-27T09:29:39.072Z,34.30
2019-02-27T09:30:39.045Z,31.50
2019-02-27T09:31:39.043Z,38.20
2019-02-27T09:32:39.013Z,36.30
2019-02-27T09:33:39.241Z,27.30
2019-02-27T09:34:38.986Z,25.50
2019-02-27T09:35:38.989Z,30.30
2019-02-27T09:36:43.017Z,40.60
2019-02-27T09:37:39.521Z,37.20
2019-02-27T09:38:38.915Z,27.10
2019-02-27T09:39:38.909Z,33.30
2019-02-27T09:40:39.685Z,32.10
2019-02-27T09:41:38.877Z,25.20
2019-02-27T09:44:08.931Z,30.10
2019-02-27T09:46:09.251Z,27.80
2019-02-27T09:47:07.044Z,30.20
2019-02-27T09:48:02.936Z,28.90
2019-02-27T09:49:06.872Z,41.30
2019-02-27T09:50:02.905Z,35.00
2019-02-27T09:51:02.895Z,33.80
2019-02-27T09:52:02.874Z,29.00
2019-02-27T09:53:03.613Z,32.00
2019-02-27T09:54:02.851Z,28.50
2019-02-27T09:55:02.836Z,32.20
2019-02-27T09:56:02.834Z,33.70
2019-02-27T09:57:02.899Z,25.80
2019-02-27T09:58:02.793Z,34.80
2019-02-27T09:59:02.788Z,33.60
2019-02-27T10:00:03.007Z,31.40
2019-02-27T10:01:03.231Z,35.00
2019-02-27T10:02:02.746Z,37.10
2019-02-27T10:03:02.729Z,42.50
2019-02-27T10:04:02.717Z,36.10
2019-02-27T10:05:03.706Z,33.40
2019-02-27T10:06:02.690Z,39.50
2019-02-27T10:07:02.678Z,35.80
2019-02-27T10:08:02.665Z,35.20
2019-02-27T10:09:02.655Z,45.80
2019-02-27T10:10:02.648Z,37.20
2019-02-27T10:11:02.631Z,46.60
2019-02-27T10:12:02.618Z,42.50
2019-02-27T10:13:03.339Z,43.90
2019-02-27T10:14:02.595Z,34.90
2019-02-27T10:15:02.578Z,33.80
2019-02-27T10:16:03.730Z,26.20
2019-02-27T10:17:02.558Z,33.10
2019-02-27T10:18:02.542Z,34.80
2019-02-27T10:19:02.629Z,39.60
2019-02-27T10:20:02.948Z,27.90
2019-02-27T10:21:02.511Z,25.70
2019-02-27T10:22:02.494Z,25.80
2019-02-27T10:23:02.483Z,23.40
2019-02-27T10:24:04.866Z,20.70
2019-02-27T10:25:02.455Z,21.80
2019-02-27T10:26:02.442Z,24.80
2019-02-27T10:27:02.437Z,22.20
2019-02-27T10:28:04.393Z,24.90
2019-02-27T10:29:02.415Z,18.70
2019-02-27T10:30:11.088Z,19.20
2019-02-27T10:31:02.390Z,22.00
2019-02-27T10:32:02.371Z,17.20
2019-02-27T10:33:03.386Z,17.00
2019-02-27T10:34:02.350Z,22.10
2019-02-27T10:35:02.340Z,21.30
2019-02-27T10:36:03.799Z,18.10
2019-02-27T10:37:02.417Z,19.90
2019-02-27T10:38:02.301Z,18.00
2019-02-27T10:39:02.843Z,24.20
2019-02-27T10:40:02.294Z,20.80
2019-02-27T10:41:02.272Z,23.80
2019-02-27T10:42:02.254Z,16.20
2019-02-27T10:43:02.261Z,16.40
2019-02-27T10:44:02.234Z,19.30
2019-02-27T10:45:02.222Z,15.30
2019-02-27T10:46:02.213Z,17.80
2019-02-27T10:47:02.201Z,17.70
2019-02-27T10:48:02.190Z,18.70
2019-02-27T10:49:02.186Z,20.30
2019-02-27T10:50:03.056Z,17.80
2019-02-27T10:51:02.164Z,14.90
2019-02-27T10:52:02.146Z,17.30
2019-02-27T10:53:02.136Z,15.70
2019-02-27T10:54:05.170Z,13.70
2019-02-27T10:55:02.121Z,15.70
2019-02-27T10:56:02.109Z,13.50
2019-02-27T10:57:02.099Z,14.70
2019-02-27T10:58:02.083Z,19.30
2019-02-27T10:59:02.076Z,27.80
2019-02-27T11:00:02.060Z,17.80
2019-02-27T11:01:02.049Z,14.90
2019-02-27T11:02:02.084Z,17.00
2019-02-27T11:03:02.027Z,15.30
2019-02-27T11:04:03.098Z,16.10
2019-02-27T11:05:02.001Z,14.50
2019-02-27T11:06:01.992Z,18.70
2019-02-27T11:07:01.979Z,16.70
2019-02-27T11:08:01.970Z,14.90
2019-02-27T11:09:04.470Z,15.10
2019-02-27T11:10:01.954Z,12.80
2019-02-27T11:11:01.944Z,15.70
2019-02-27T11:12:01.929Z,20.50
2019-02-27T11:13:05.518Z,14.40
2019-02-27T11:14:01.903Z,15.40
2019-02-27T11:15:01.895Z,15.80
2019-02-27T11:16:01.888Z,19.90
2019-02-27T11:17:02.741Z,15.90
2019-02-27T11:18:05.378Z,13.90
2019-02-27T11:19:01.845Z,13.50
2019-02-27T11:20:01.853Z,15.80
2019-02-27T11:21:01.823Z,13.80
2019-02-27T11:22:01.820Z,13.90
2019-02-27T11:23:06.528Z,12.80
2019-02-27T11:24:01.790Z,15.60
2019-02-27T11:25:01.778Z,16.60
2019-02-27T11:26:01.924Z,18.10
2019-02-27T11:27:05.745Z,15.70
2019-02-27T11:28:01.743Z,17.90
2019-02-27T11:29:01.733Z,15.70
2019-02-27T11:30:03.090Z,13.90
2019-02-27T11:31:01.718Z,14.80
2019-02-27T11:32:01.702Z,23.60
2019-02-27T11:33:01.698Z,16.90
2019-02-27T11:34:01.675Z,16.30
2019-02-27T11:35:01.673Z,15.20
2019-02-27T11:36:03.228Z,12.10
2019-02-27T11:37:01.646Z,14.90
2019-02-27T11:38:01.641Z,13.50
2019-02-27T11:39:01.618Z,15.20
2019-02-27T11:40:01.616Z,18.00
2019-02-27T11:41:01.599Z,11.80
2019-02-27T11:42:01.589Z,14.80
2019-02-27T11:43:06.366Z,13.70
2019-02-27T11:44:01.560Z,12.40
2019-02-27T11:45:01.568Z,15.20
2019-02-27T11:46:01.539Z,18.90
2019-02-27T11:47:01.529Z,17.80
2019-02-27T11:48:01.519Z,15.70
2019-02-27T11:49:03.191Z,17.10
2019-02-27T11:50:01.490Z,16.90
2019-02-27T11:51:01.478Z,21.00
2019-02-27T11:52:01.480Z,17.80
2019-02-27T11:53:02.744Z,16.70
2019-02-27T11:54:01.441Z,14.40
2019-02-27T11:55:01.430Z,17.30
2019-02-27T11:56:01.416Z,18.20
2019-02-27T11:57:01.405Z,19.80
2019-02-27T11:58:04.423Z,18.30
2019-02-27T11:59:01.404Z,16.10
2019-02-27T12:00:01.378Z,16.90
2019-02-27T12:01:01.367Z,17.70
2019-02-27T12:02:01.342Z,13.60
2019-02-27T12:03:01.330Z,14.30
2019-02-27T12:04:01.330Z,15.00
2019-02-27T12:05:01.309Z,17.50
2019-02-27T12:06:01.299Z,16.00
2019-02-27T12:07:01.287Z,15.50
2019-02-27T12:08:01.265Z,18.20
2019-02-27T12:09:01.253Z,16.40
2019-02-27T12:10:01.241Z,14.80
2019-02-27T12:11:01.227Z,15.70
2019-02-27T12:12:01.263Z,18.50
2019-02-27T12:13:01.665Z,14.50
2019-02-27T12:14:01.186Z,13.70
2019-02-27T12:15:01.180Z,15.20
2019-02-27T12:16:01.160Z,16.60
2019-02-27T12:17:01.172Z,15.40
2019-02-27T12:18:01.712Z,16.60
2019-02-27T12:19:01.132Z,19.70
2019-02-27T12:20:01.106Z,21.80
2019-02-27T12:21:01.097Z,19.40
2019-02-27T12:22:01.079Z,18.00
2019-02-27T12:23:01.069Z,16.70
2019-02-27T12:24:01.059Z,20.10
2019-02-27T12:25:01.044Z,18.10
2019-02-27T12:26:02.467Z,18.10
2019-02-27T12:27:01.009Z,19.40
2019-02-27T12:28:00.997Z,16.00
2019-02-27T12:29:00.988Z,17.10
2019-02-27T12:30:02.989Z,19.40
2019-02-27T12:31:00.969Z,15.20
2019-02-27T12:32:00.940Z,19.00
2019-02-27T12:33:00.936Z,20.60
2019-02-27T12:34:03.345Z,17.70
2019-02-27T12:35:03.029Z,21.10
2019-02-27T12:36:00.897Z,20.20
2019-02-27T12:37:00.873Z,17.40
2019-02-27T12:38:00.854Z,17.20
2019-02-27T12:39:00.838Z,15.80
2019-02-27T12:40:00.842Z,15.70
2019-02-27T12:41:00.808Z,18.00
2019-02-27T12:42:00.804Z,17.80
2019-02-27T12:43:00.777Z,20.60
2019-02-27T12:44:00.779Z,17.10
2019-02-27T12:45:00.762Z,19.70
2019-02-27T12:46:01.608Z,20.40
2019-02-27T12:47:00.729Z,19.80
2019-02-27T12:48:00.710Z,21.90
2019-02-27T12:49:00.688Z,17.20
2019-02-27T12:50:00.674Z,17.60
2019-02-27T12:51:03.499Z,18.20
2019-02-27T12:52:00.642Z,17.10
2019-02-27T12:53:00.629Z,21.30
2019-02-27T12:54:00.622Z,16.90
2019-02-27T12:55:01.770Z,18.80